Time;durP1;ratioP1;P1;durP2;ratioP2;P2;SDS_P1;SDS_P2;PMS_P1;PMS_P2;Temp;Humidity;BMP_temperature;BMP_pressure;BME280_temperature;BME280_humidity;BME280_pressure;Samples;Min_cycle;Max_cycle;Signal;HPM_P1;HPM_P2
2024/03/02 00:01:37;;;;;;;33.67;17.03;;;;;;;7.23;59.94;100810.85;124345;1099;104254;-78
2024/03/02 00:04:10;;;;;;;35.27;17.30;;;;;;;7.21;60.07;100802.94;124539;1099;111385;-78
2024/03/02 00:06:42;;;;;;;34.85;17.27;;;;;;;7.18;59.23;100806.30;124618;1099;104287;-78
2024/03/02 00:09:15;;;;;;;37.77;17.17;;;;;;;7.13;59.63;100793.80;124577;1099;104323;-78
2024/03/02 00:11:47;;;;;;;36.08;16.90;;;;;;;7.11;59.60;100791.11;124314;1099;104274;-78
2024/03/02 00:14:19;;;;;;;33.55;16.85;;;;;;;7.10;59.56;100789.30;124032;1099;104271;-79
2024/03/02 00:16:50;;;;;;;33.23;16.27;;;;;;;7.11;59.59;100783.28;124074;1099;104652;-78
2024/03/02 00:19:21;;;;;;;34.10;15.60;;;;;;;7.11;60.18;100792.83;124168;1099;104316;-78
2024/03/02 00:21:52;;;;;;;37.03;17.40;;;;;;;7.11;59.88;100785.00;124013;1099;104347;-78
2024/03/02 00:24:33;;;;;;;35.03;17.57;;;;;;;7.11;60.04;100785.00;124080;1100;107817;-78
2024/03/02 00:27:11;;;;;;;37.03;17.63;;;;;;;7.11;59.97;100785.89;124563;1099;104356;-79
2024/03/02 00:29:43;;;;;;;36.80;17.70;;;;;;;7.11;59.84;100785.00;124690;1099;104363;-79
2024/03/02 00:32:17;;;;;;;38.53;17.33;;;;;;;7.11;59.94;100780.67;124516;1099;104271;-79
2024/03/02 00:34:48;;;;;;;34.23;16.73;;;;;;;7.09;59.76;100779.70;124175;1102;117929;-79
2024/03/02 00:37:19;;;;;;;35.10;17.03;;;;;;;7.10;59.79;100776.26;124086;1099;104229;-79
2024/03/02 00:39:53;;;;;;;34.47;16.53;;;;;;;7.09;59.66;100769.27;124044;1099;104271;-78
2024/03/02 00:42:24;;;;;;;34.58;16.35;;;;;;;7.04;59.72;100768.09;123993;1099;104281;-78
2024/03/02 00:44:55;;;;;;;34.27;16.77;;;;;;;7.01;59.55;100762.71;124184;1099;104172;-79
2024/03/02 00:47:27;;;;;;;39.40;17.20;;;;;;;6.96;59.73;100764.19;124159;1099;104386;-80
2024/03/02 00:49:58;;;;;;;34.90;16.67;;;;;;;6.94;59.71;100763.22;124089;1099;104341;-79
2024/03/02 00:52:30;;;;;;;33.95;16.95;;;;;;;6.92;59.68;100762.20;123987;1102;104414;-79
2024/03/02 00:55:01;;;;;;;38.13;17.73;;;;;;;6.91;59.58;100755.22;124006;1099;111994;-79
2024/03/02 00:57:35;;;;;;;37.00;17.70;;;;;;;6.91;59.73;100750.89;124029;1099;104223;-79
2024/03/02 01:00:10;;;;;;;37.13;17.83;;;;;;;6.89;59.85;100746.39;124053;1099;104255;-84
2024/03/02 01:02:41;;;;;;;36.50;17.27;;;;;;;6.88;59.50;100749.83;124045;1099;104453;-79
2024/03/02 01:05:13;;;;;;;38.27;17.27;;;;;;;6.84;59.64;100736.62;124343;1099;104189;-78
2024/03/02 01:07:44;;;;;;;34.90;16.73;;;;;;;6.84;59.85;100731.41;124029;1099;104274;-79
2024/03/02 01:10:15;;;;;;;32.00;17.23;;;;;;;6.85;59.85;100740.12;124071;1099;104246;-79
2024/03/02 01:12:46;;;;;;;33.33;17.97;;;;;;;6.80;59.79;100721.61;124045;1099;104380;-79
2024/03/02 01:15:18;;;;;;;32.13;15.83;;;;;;;6.86;59.86;100736.70;124363;1099;104351;-78
2024/03/02 01:17:49;;;;;;;35.13;18.30;;;;;;;6.85;59.77;100734.91;124497;1099;104357;-79
2024/03/02 01:20:21;;;;;;;35.77;18.10;;;;;;;6.88;59.91;100732.45;124458;1099;104274;-79
2024/03/02 01:22:53;;;;;;;34.67;16.87;;;;;;;6.88;59.91;100728.97;124328;1098;104304;-79
2024/03/02 01:25:24;;;;;;;34.83;17.00;;;;;;;6.87;59.66;100725.44;124443;1099;104464;-79
2024/03/02 01:27:56;;;;;;;35.43;18.53;;;;;;;6.87;60.02;100729.77;124589;1099;104400;-79
2024/03/02 01:30:27;;;;;;;35.57;18.13;;;;;;;6.88;60.08;100731.58;124490;1099;104262;-79
2024/03/02 01:33:00;;;;;;;37.17;17.60;;;;;;;6.89;59.89;100739.48;124016;1099;104229;-79
2024/03/02 01:35:33;;;;;;;32.77;16.37;;;;;;;6.91;59.91;100732.63;124505;1099;104347;-79
2024/03/02 01:38:05;;;;;;;38.13;17.70;;;;;;;6.93;59.69;100727.49;124596;1099;104242;-78
2024/03/02 01:40:37;;;;;;;36.93;17.33;;;;;;;6.95;59.74;100726.77;124703;1099;104785;-79
2024/03/02 01:43:09;;;;;;;33.57;16.33;;;;;;;6.99;59.99;100714.77;124709;1099;104249;-79
2024/03/02 01:45:40;;;;;;;34.47;16.43;;;;;;;7.01;60.18;100715.75;124551;1099;104272;-79
2024/03/02 01:48:11;;;;;;;37.13;17.77;;;;;;;7.01;59.84;100721.88;124717;1099;104332;-79
2024/03/02 01:50:44;;;;;;;33.93;16.17;;;;;;;7.05;60.24;100722.94;124580;1098;104173;-79
2024/03/02 01:53:15;;;;;;;37.20;16.65;;;;;;;7.07;60.25;100721.29;124152;1099;104310;-79
2024/03/02 01:55:46;;;;;;;32.37;16.97;;;;;;;7.09;60.24;100716.16;123898;1099;104348;-79
2024/03/02 01:58:17;;;;;;;34.60;16.13;;;;;;;7.11;60.32;100718.04;124085;1099;104252;-79
2024/03/02 02:00:50;;;;;;;34.00;15.83;;;;;;;7.10;60.30;100708.41;124508;1099;104220;-78
2024/03/02 02:03:21;;;;;;;37.53;17.03;;;;;;;7.04;60.01;100704.59;124517;1098;104351;-79
2024/03/02 02:05:53;;;;;;;40.10;17.17;;;;;;;7.00;59.80;100703.53;124693;1099;104403;-78
2024/03/02 02:08:24;;;;;;;33.87;16.50;;;;;;;6.99;60.06;100704.34;124129;1099;104320;-79
2024/03/02 02:10:55;;;;;;;35.73;16.37;;;;;;;6.98;59.81;100689.48;124308;1099;104258;-78
2024/03/02 02:13:27;;;;;;;37.07;18.13;;;;;;;6.99;60.06;100683.47;124250;1099;104194;-79
2024/03/02 02:16:05;;;;;;;33.63;17.07;;;;;;;6.96;59.89;100681.58;124661;1099;104473;-79
2024/03/02 02:18:36;;;;;;;33.47;17.33;;;;;;;6.93;59.92;100685.75;124496;1099;104207;-78
2024/03/02 02:21:07;;;;;;;35.03;17.53;;;;;;;6.90;60.18;100680.38;124571;1099;104281;-79
2024/03/02 02:23:38;;;;;;;32.33;16.03;;;;;;;6.92;60.24;100686.55;124463;1099;104223;-80
2024/03/02 02:26:10;;;;;;;33.80;16.70;;;;;;;6.93;60.11;100675.31;124155;1099;104268;-79
2024/03/02 02:28:46;;;;;;;37.67;16.73;;;;;;;6.93;60.38;100684.03;124595;1099;104623;-79
2024/03/02 02:31:18;;;;;;;33.60;16.30;;;;;;;6.96;60.32;100688.52;124542;1099;104275;-79
2024/03/02 02:33:49;;;;;;;34.07;16.20;;;;;;;6.97;60.65;100687.72;124464;1099;104360;-79
2024/03/02 02:36:20;;;;;;;32.33;16.50;;;;;;;6.99;60.42;100691.30;124444;1099;104351;-79
2024/03/02 02:38:51;;;;;;;35.27;16.67;;;;;;;7.01;60.68;100694.87;124496;1099;104243;-79
2024/03/02 02:41:23;;;;;;;35.33;16.03;;;;;;;7.00;60.10;100693.10;124400;1098;104328;-79
2024/03/02 02:43:54;;;;;;;34.80;16.63;;;;;;;7.03;60.57;100698.48;124336;1099;104213;-80
2024/03/02 02:46:25;;;;;;;38.80;16.10;;;;;;;7.04;60.40;100695.03;124289;1099;104687;-79
2024/03/02 02:48:56;;;;;;;35.07;16.90;;;;;;;7.04;60.23;100699.37;124009;1099;104230;-79
2024/03/02 02:51:27;;;;;;;38.33;19.93;;;;;;;7.02;60.39;100696.68;124234;1099;104217;-79
2024/03/02 02:53:59;;;;;;;35.50;18.47;;;;;;;6.99;60.52;100692.19;124551;1099;104245;-79
2024/03/02 02:56:30;;;;;;;35.97;17.67;;;;;;;6.96;60.57;100691.13;124657;1099;104446;-78
2024/03/02 02:59:01;;;;;;;36.20;16.27;;;;;;;6.92;60.58;100691.77;124581;1099;104255;-79
2024/03/02 03:01:32;;;;;;;36.30;17.13;;;;;;;6.90;60.36;100690.80;124783;1099;104290;-78
2024/03/02 03:04:03;;;;;;;32.13;15.60;;;;;;;6.86;60.29;100688.83;124250;1099;104278;-78
2024/03/02 03:06:34;;;;;;;27.77;14.67;;;;;;;6.82;60.34;100682.56;124258;1099;104246;-79
2024/03/02 03:09:06;;;;;;;33.57;16.33;;;;;;;6.79;60.37;100672.89;124517;1099;104296;-78
2024/03/02 03:11:37;;;;;;;34.80;16.57;;;;;;;6.75;60.23;100672.64;124161;1099;104318;-78
2024/03/02 03:14:08;;;;;;;35.27;16.07;;;;;;;6.69;60.07;100670.59;124524;1099;104264;-79
2024/03/02 03:16:39;;;;;;;38.57;17.37;;;;;;;6.68;60.42;100667.90;124544;1099;104242;-78
2024/03/02 03:19:10;;;;;;;31.50;15.57;;;;;;;6.68;60.47;100668.78;124754;1099;104373;-79
2024/03/02 03:21:41;;;;;;;33.20;16.10;;;;;;;6.65;60.56;100664.32;124222;1099;104488;-78
2024/03/02 03:24:13;;;;;;;35.63;16.00;;;;;;;6.63;60.56;100668.53;124517;1099;104235;-78
2024/03/02 03:26:44;;;;;;;32.70;15.50;;;;;;;6.66;60.53;100662.59;124460;1099;104361;-78
2024/03/02 03:29:16;;;;;;;31.87;15.73;;;;;;;6.66;60.43;100662.59;124503;1099;104204;-79
2024/03/02 03:31:47;;;;;;;34.47;16.97;;;;;;;6.68;60.52;100665.29;124676;1099;104373;-78
2024/03/02 03:34:18;;;;;;;35.67;16.97;;;;;;;6.64;60.62;100670.34;124594;1099;104172;-79
2024/03/02 03:36:49;;;;;;;34.77;17.10;;;;;;;6.61;60.59;100675.38;124146;1099;104235;-79
2024/03/02 03:39:20;;;;;;;36.97;18.13;;;;;;;6.57;60.55;100665.59;124665;1099;104246;-79
2024/03/02 03:41:52;;;;;;;34.80;16.70;;;;;;;6.53;60.65;100662.73;124634;1099;104191;-79
2024/03/02 03:44:23;;;;;;;31.67;15.87;;;;;;;6.50;60.65;100662.56;124669;1099;104296;-78
2024/03/02 03:46:54;;;;;;;34.40;16.50;;;;;;;6.45;60.86;100671.05;124724;1099;104255;-79
2024/03/02 03:49:25;;;;;;;37.03;19.47;;;;;;;6.39;60.42;100667.19;124924;1099;104261;-78
2024/03/02 03:51:57;;;;;;;43.55;20.55;;;;;;;6.33;60.55;100666.84;124715;1099;104169;-78
2024/03/02 03:54:28;;;;;;;51.40;26.20;;;;;;;6.28;60.85;100667.51;124579;1099;104277;-79
2024/03/02 03:56:59;;;;;;;56.83;28.80;;;;;;;6.26;60.91;100665.62;124735;1099;104171;-78
2024/03/02 03:59:30;;;;;;;62.30;28.23;;;;;;;6.28;61.01;100669.23;124740;1098;104432;-80
2024/03/02 04:02:02;;;;;;;60.97;27.87;;;;;;;6.25;61.16;100667.34;124567;1099;104214;-78
2024/03/02 04:04:33;;;;;;;68.43;30.97;;;;;;;6.21;60.96;100669.69;124647;1099;104281;-79
2024/03/02 04:07:05;;;;;;;55.37;25.73;;;;;;;6.18;61.06;100669.52;124555;1099;104281;-78
2024/03/02 04:09:36;;;;;;;54.23;25.03;;;;;;;6.12;60.96;100664.84;124065;1098;104415;-78
2024/03/02 04:12:07;;;;;;;45.47;21.03;;;;;;;6.08;61.29;100669.00;124732;1099;104329;-79
2024/03/02 04:14:38;;;;;;;41.83;21.53;;;;;;;6.10;61.30;100666.48;124075;1099;104412;-79
2024/03/02 04:17:10;;;;;;;39.87;18.83;;;;;;;6.13;61.52;100658.84;124436;1099;104246;-78
2024/03/02 04:19:41;;;;;;;41.47;19.57;;;;;;;6.13;61.45;100660.55;124555;1099;104271;-78
2024/03/02 04:22:12;;;;;;;39.63;17.97;;;;;;;6.10;61.72;100661.27;124760;1099;104299;-78
2024/03/02 04:24:44;;;;;;;36.53;17.27;;;;;;;6.06;62.06;100664.50;124860;1099;104363;-78
2024/03/02 04:27:15;;;;;;;36.17;15.73;;;;;;;6.02;62.08;100660.84;124961;1099;104210;-79
2024/03/02 04:29:46;;;;;;;33.37;17.87;;;;;;;6.01;61.79;100664.23;124607;1099;104247;-78
2024/03/02 04:32:19;;;;;;;35.97;16.73;;;;;;;6.00;61.92;100667.68;124343;1099;104361;-79
2024/03/02 04:34:51;;;;;;;31.07;15.50;;;;;;;6.01;62.20;100666.84;124591;1098;104255;-79
2024/03/02 04:37:22;;;;;;;32.27;15.43;;;;;;;6.04;62.21;100672.23;124544;1098;105752;-79
2024/03/02 04:39:53;;;;;;;32.00;15.55;;;;;;;6.06;62.09;100662.81;124464;1099;104349;-79
2024/03/02 04:42:24;;;;;;;33.20;15.57;;;;;;;6.10;62.35;100663.87;124399;1099;104274;-79
2024/03/02 04:44:56;;;;;;;30.53;15.40;;;;;;;6.14;62.44;100667.54;124413;1099;104207;-80
2024/03/02 04:47:27;;;;;;;30.33;15.63;;;;;;;6.13;62.23;100671.86;124623;1099;104294;-79
2024/03/02 04:49:58;;;;;;;34.90;15.03;;;;;;;6.12;62.17;100664.84;124486;1099;104351;-79
2024/03/02 04:52:31;;;;;;;30.63;15.17;;;;;;;6.13;62.36;100660.55;124591;1099;104255;-79
2024/03/02 04:55:29;;;;;;;33.20;14.50;;;;;;;6.15;62.27;100664.13;124387;1099;104176;-80
2024/03/02 04:58:00;;;;;;;35.43;16.10;;;;;;;6.17;62.56;100662.50;124509;1099;104281;-79
2024/03/02 05:00:31;;;;;;;30.30;14.63;;;;;;;6.20;62.63;100666.20;124558;1099;104252;-79
2024/03/02 05:03:03;;;;;;;26.23;14.03;;;;;;;6.19;62.37;100667.00;124946;1099;104258;-79
2024/03/02 05:05:39;;;;;;;30.10;15.10;;;;;;;6.16;62.39;100669.43;124624;1099;104178;-78
2024/03/02 05:08:11;;;;;;;40.10;15.50;;;;;;;6.18;62.66;100674.73;124384;1099;104229;-79
2024/03/02 05:10:43;;;;;;;35.13;15.83;;;;;;;6.19;62.57;100676.53;124697;1098;104182;-79
2024/03/02 05:13:14;;;;;;;33.40;14.37;;;;;;;6.19;62.89;100674.81;124645;1099;104364;-80
2024/03/02 05:15:46;;;;;;;31.90;15.33;;;;;;;6.21;62.54;100680.11;124107;1099;104348;-80
2024/03/02 05:18:19;;;;;;;30.00;14.33;;;;;;;6.27;62.57;100675.24;124584;1099;104313;-79
2024/03/02 05:20:50;;;;;;;37.20;16.27;;;;;;;6.30;62.69;100675.41;124473;1098;104252;-79
2024/03/02 05:23:21;;;;;;;32.83;15.17;;;;;;;6.29;62.67;100673.61;124422;1099;104266;-79
2024/03/02 05:25:52;;;;;;;34.23;14.60;;;;;;;6.28;63.37;100671.84;124348;1099;104362;-79
2024/03/02 05:28:23;;;;;;;33.37;14.63;;;;;;;6.28;62.69;100679.66;124506;1099;104277;-79
2024/03/02 05:30:54;;;;;;;30.20;14.20;;;;;;;6.27;62.89;100675.24;124119;1099;104252;-79
2024/03/02 05:33:26;;;;;;;28.87;14.53;;;;;;;6.25;62.78;100672.55;124220;1099;104245;-79
2024/03/02 05:35:57;;;;;;;30.13;14.83;;;;;;;6.18;62.74;100679.94;124640;1098;104168;-79
2024/03/02 05:38:28;;;;;;;31.17;15.10;;;;;;;6.13;62.61;100678.80;124183;1099;104350;-79
2024/03/02 05:40:59;;;;;;;36.17;15.13;;;;;;;6.15;62.95;100682.38;124545;1099;104396;-79
2024/03/02 05:43:30;;;;;;;33.90;15.03;;;;;;;6.19;62.74;100686.95;124372;1099;104312;-79
2024/03/02 05:46:01;;;;;;;34.40;15.80;;;;;;;6.25;62.96;100685.58;124629;1099;104370;-79
2024/03/02 05:48:32;;;;;;;28.90;14.37;;;;;;;6.32;63.14;100689.42;124565;1098;104229;-78
2024/03/02 05:51:04;;;;;;;31.77;15.27;;;;;;;6.32;63.12;100688.53;124793;1099;117809;-79
2024/03/02 05:53:37;;;;;;;34.33;16.17;;;;;;;6.27;62.88;100690.87;124642;1099;104383;-80
2024/03/02 05:56:11;;;;;;;30.60;14.95;;;;;;;6.25;63.04;100690.80;124733;1099;104226;-79
2024/03/02 05:58:57;;;;;;;37.08;16.75;;;;;;;6.24;63.11;100690.70;124542;1099;104380;-79
2024/03/02 06:01:30;;;;;;;33.47;16.13;;;;;;;6.25;62.93;100689.91;124716;1099;104303;-79
2024/03/02 06:04:02;;;;;;;37.05;15.45;;;;;;;6.25;63.14;100685.58;124578;1099;104232;-79
2024/03/02 06:06:34;;;;;;;33.23;15.70;;;;;;;6.30;63.22;100685.84;124045;1099;104303;-80
2024/03/02 06:09:07;;;;;;;34.30;15.77;;;;;;;6.36;62.97;100694.00;124607;1098;104271;-79
2024/03/02 06:11:40;;;;;;;32.90;15.57;;;;;;;6.34;63.09;100690.39;124100;1099;104178;-79
2024/03/02 06:14:11;;;;;;;30.55;14.90;;;;;;;6.39;63.13;100691.56;124913;1099;104297;-77
2024/03/02 06:16:43;;;;;;;35.33;14.90;;;;;;;6.40;62.95;100695.95;124632;1099;102320;-77
2024/03/02 06:19:14;;;;;;;35.53;15.67;;;;;;;6.41;63.03;100700.36;124772;1099;104348;-77
2024/03/02 06:21:45;;;;;;;34.67;15.27;;;;;;;6.40;63.12;100698.55;124199;1099;104290;-78
2024/03/02 06:24:19;;;;;;;36.67;15.43;;;;;;;6.37;63.21;100697.49;124234;1099;104248;-78
2024/03/02 06:26:49;;;;;;;;;;;;;;;6.38;63.24;100704.52;124484;1099;104293;-79
2024/03/02 06:29:20;;;;;;;30.13;15.50;;;;;;;6.38;63.06;100704.52;124689;1098;104304;-78
2024/03/02 06:31:51;;;;;;;34.57;16.73;;;;;;;6.41;63.20;100704.69;124430;1099;104351;-80
2024/03/02 06:34:22;;;;;;;31.75;15.30;;;;;;;6.42;62.79;100698.64;124594;1099;104245;-77
2024/03/02 06:36:53;;;;;;;34.80;16.17;;;;;;;6.35;62.99;100694.80;124625;1099;104280;-78
2024/03/02 06:39:25;;;;;;;36.40;17.00;;;;;;;6.28;62.99;100692.69;124014;1099;104310;-77
2024/03/02 06:41:57;;;;;;;33.87;15.67;;;;;;;6.32;63.08;100694.63;124198;1099;104387;-78
2024/03/02 06:44:28;;;;;;;35.95;15.70;;;;;;;6.33;63.25;100691.22;124311;1099;104244;-79
2024/03/02 06:46:59;;;;;;;38.03;17.73;;;;;;;6.34;63.13;100693.00;124237;1099;104233;-78
2024/03/02 06:49:30;;;;;;;33.47;16.17;;;;;;;6.35;63.05;100694.80;124259;1099;104286;-78
2024/03/02 06:52:01;;;;;;;35.03;17.30;;;;;;;6.35;63.14;100692.20;124651;1098;104252;-78
2024/03/02 06:54:34;;;;;;;36.50;18.13;;;;;;;6.35;62.92;100697.41;124452;1098;104349;-78
2024/03/02 06:57:06;;;;;;;33.10;16.97;;;;;;;6.43;63.09;100685.69;124354;1099;104302;-78
2024/03/02 06:59:37;;;;;;;34.83;17.80;;;;;;;6.52;63.16;100687.03;124747;1099;104316;-79
2024/03/02 07:02:08;;;;;;;34.43;17.40;;;;;;;6.61;63.12;100692.75;124664;1099;104724;-79
2024/03/02 07:04:40;;;;;;;34.47;16.57;;;;;;;6.71;63.21;100689.81;124466;1099;104322;-78
2024/03/02 07:07:11;;;;;;;34.93;17.00;;;;;;;6.80;63.11;100689.42;124311;1099;104226;-78
2024/03/02 07:09:45;;;;;;;34.77;17.03;;;;;;;6.82;62.99;100682.56;124259;1099;104351;-78
2024/03/02 07:12:16;;;;;;;38.37;18.03;;;;;;;6.86;63.13;100686.22;124202;1099;104354;-77
2024/03/02 07:15:11;;;;;;;41.50;18.83;;;;;;;6.73;62.91;100690.81;124041;1099;104256;-78
2024/03/02 07:17:42;;;;;;;40.43;18.40;;;;;;;6.75;62.63;100698.72;123920;1099;104205;-79
2024/03/02 07:20:14;;;;;;;45.60;19.17;;;;;;;6.79;62.71;100685.02;123865;1099;104197;-79
2024/03/02 07:22:45;;;;;;;39.00;18.33;;;;;;;6.89;62.82;100683.78;124162;1099;104443;-78
2024/03/02 07:25:16;;;;;;;41.00;19.30;;;;;;;6.96;62.66;100685.91;124545;1099;104271;-77
2024/03/02 07:27:48;;;;;;;34.73;18.20;;;;;;;6.91;62.45;100687.39;124493;1099;104300;-78
2024/03/02 07:30:19;;;;;;;37.00;18.60;;;;;;;6.91;62.64;100695.22;125049;1098;104185;-79
2024/03/02 07:32:52;;;;;;;37.07;17.47;;;;;;;6.96;62.65;100696.35;124612;1099;104195;-78
2024/03/02 07:35:27;;;;;;;38.27;19.20;;;;;;;6.94;62.28;100692.77;124699;1099;104274;-79
2024/03/02 07:37:56;;;;;;;;;;;;;;;6.86;61.87;100697.58;124702;1099;104224;-78
2024/03/02 07:40:28;;;;;;;34.40;18.70;;;;;;;6.81;62.15;100696.45;124176;1099;104243;-78
2024/03/02 07:42:59;;;;;;;32.95;17.70;;;;;;;6.79;62.27;100693.75;124406;1099;104299;-79
2024/03/02 07:45:30;;;;;;;36.20;18.55;;;;;;;6.76;62.18;100696.20;124885;1098;104261;-78
2024/03/02 07:48:03;;;;;;;34.93;18.30;;;;;;;6.75;62.44;100697.00;124504;1098;104203;-78
2024/03/02 07:50:35;;;;;;;36.97;18.63;;;;;;;6.75;62.23;100704.82;125088;1099;104377;-79
2024/03/02 07:53:07;;;;;;;37.35;18.50;;;;;;;6.78;62.48;100702.38;124302;1098;104734;-79
2024/03/02 07:55:39;;;;;;;39.67;19.43;;;;;;;6.76;62.36;100696.20;124644;1099;104304;-78
2024/03/02 07:58:11;;;;;;;38.73;18.97;;;;;;;6.79;62.43;100698.97;124160;1099;104334;-78
2024/03/02 08:00:43;;;;;;;39.93;18.70;;;;;;;6.90;62.71;100703.84;124126;1102;104377;-79
2024/03/02 08:03:17;;;;;;;38.20;18.70;;;;;;;6.87;62.22;100701.96;124301;1099;104165;-79
2024/03/02 08:05:48;;;;;;;36.03;18.53;;;;;;;6.84;62.39;100702.72;124291;1099;104224;-78
2024/03/02 08:08:19;;;;;;;37.77;19.07;;;;;;;6.83;62.27;100708.73;124507;1099;104281;-78
2024/03/02 08:10:51;;;;;;;40.67;19.60;;;;;;;6.87;62.07;100707.17;124755;1098;104281;-78
2024/03/02 08:13:22;;;;;;;41.40;19.33;;;;;;;6.89;62.08;100702.96;124594;1099;104226;-78
2024/03/02 08:15:53;;;;;;;38.00;20.07;;;;;;;6.89;62.34;100695.13;124318;1098;104296;-79
2024/03/02 08:18:24;;;;;;;39.00;19.23;;;;;;;6.94;62.31;100690.16;125040;1099;104597;-79
2024/03/02 08:20:56;;;;;;;39.70;20.03;;;;;;;6.99;62.26;100696.52;124506;1099;104348;-79
2024/03/02 08:23:27;;;;;;;45.10;20.53;;;;;;;7.09;62.42;100693.59;124167;1099;104306;-79
2024/03/02 08:25:59;;;;;;;42.30;19.90;;;;;;;7.19;62.10;100688.02;124403;1099;104389;-79
2024/03/02 08:28:30;;;;;;;35.60;19.30;;;;;;;7.29;62.53;100680.66;124304;1099;104361;-79
2024/03/02 08:31:01;;;;;;;38.33;18.57;;;;;;;7.42;62.85;100680.49;124061;1099;104667;-78
2024/03/02 08:33:32;;;;;;;41.83;19.60;;;;;;;7.53;62.32;100678.43;124397;1099;104657;-80
2024/03/02 08:36:04;;;;;;;38.33;19.50;;;;;;;7.64;62.01;100684.20;124720;1099;104528;-78
2024/03/02 08:38:35;;;;;;;38.97;19.73;;;;;;;7.66;62.40;100685.16;124283;1099;104360;-78
2024/03/02 08:41:08;;;;;;;36.85;18.35;;;;;;;7.73;62.64;100682.94;124467;1098;104271;-79
2024/03/02 08:43:39;;;;;;;36.27;18.60;;;;;;;7.84;61.91;100680.86;124335;1099;104239;-79
2024/03/02 08:46:11;;;;;;;38.13;19.47;;;;;;;7.91;62.00;100675.09;123995;1099;104169;-78
2024/03/02 08:48:42;;;;;;;40.97;19.67;;;;;;;8.01;62.21;100679.08;123996;1099;104335;-79
2024/03/02 08:51:13;;;;;;;39.30;18.87;;;;;;;8.14;62.26;100675.33;124488;1099;104255;-78
2024/03/02 08:53:44;;;;;;;36.53;18.77;;;;;;;8.22;61.83;100673.97;124305;1099;104344;-79
2024/03/02 08:56:16;;;;;;;36.30;18.23;;;;;;;8.26;61.13;100672.42;124416;1099;104853;-79
2024/03/02 08:58:48;;;;;;;37.53;19.27;;;;;;;8.26;61.96;100662.84;124375;1099;104689;-79
2024/03/02 09:01:20;;;;;;;39.77;19.03;;;;;;;8.34;61.74;100665.83;124490;1099;104351;-80
2024/03/02 09:03:52;;;;;;;37.83;18.23;;;;;;;8.43;62.00;100663.69;124118;1099;104376;-79
2024/03/02 09:06:23;;;;;;;37.65;18.80;;;;;;;8.52;61.50;100667.55;124314;1099;104283;-78
2024/03/02 09:08:54;;;;;;;36.90;18.37;;;;;;;8.57;61.38;100661.71;124049;1099;104284;-78
2024/03/02 09:11:25;;;;;;;36.83;18.13;;;;;;;8.54;61.14;100658.95;124017;1099;104290;-78
2024/03/02 09:13:57;;;;;;;40.00;19.20;;;;;;;8.59;61.68;100653.94;124195;1099;104306;-78
2024/03/02 09:16:31;;;;;;;40.40;20.17;;;;;;;8.68;61.08;100656.06;124569;1099;104255;-79
2024/03/02 09:19:02;;;;;;;39.20;19.00;;;;;;;8.69;61.11;100658.75;124893;1099;104323;-78
2024/03/02 09:21:34;;;;;;;39.40;18.90;;;;;;;8.69;60.54;100650.89;124775;1099;104278;-79
2024/03/02 09:24:06;;;;;;;38.80;19.40;;;;;;;8.59;60.46;100644.36;124780;1099;104251;-78
2024/03/02 09:26:38;;;;;;;39.63;19.57;;;;;;;8.58;60.81;100639.05;125208;1098;104320;-79
2024/03/02 09:29:09;;;;;;;38.67;20.13;;;;;;;8.60;60.19;100646.16;124408;1099;104344;-79
2024/03/02 09:31:44;;;;;;;40.07;19.43;;;;;;;8.70;60.65;100637.00;124529;1099;104249;-80
2024/03/02 09:34:15;;;;;;;36.33;18.53;;;;;;;8.79;59.70;100647.00;124503;1099;104252;-78
2024/03/02 09:36:46;;;;;;;37.65;19.55;;;;;;;8.81;60.36;100638.38;124433;1099;104325;-78
2024/03/02 09:39:18;;;;;;;38.70;19.10;;;;;;;8.93;60.27;100626.69;124046;1099;104341;-77
2024/03/02 09:41:50;;;;;;;37.20;18.40;;;;;;;9.05;59.98;100631.55;124251;1099;104679;-79
2024/03/02 09:44:22;;;;;;;39.93;21.77;;;;;;;9.02;59.83;100624.45;124694;1099;104204;-79
2024/03/02 09:46:53;;;;;;;36.00;18.97;;;;;;;9.10;59.02;100630.93;124419;1099;104188;-78
2024/03/02 09:49:25;;;;;;;35.90;18.73;;;;;;;9.22;58.90;100627.94;124398;1099;104325;-77
2024/03/02 09:51:57;;;;;;;40.90;21.07;;;;;;;9.30;59.32;100626.56;124665;1099;104286;-79
2024/03/02 09:54:28;;;;;;;37.00;19.90;;;;;;;9.39;59.19;100620.80;123959;1100;104521;-78
2024/03/02 09:57:01;;;;;;;40.67;19.53;;;;;;;9.54;59.30;100616.20;124312;1099;104312;-78
2024/03/02 09:59:32;;;;;;;48.00;23.37;;;;;;;9.63;58.92;100620.95;124554;1099;104342;-78
2024/03/02 10:02:07;;;;;;;41.43;19.43;;;;;;;9.79;59.85;100616.34;124294;1098;104293;-78
2024/03/02 10:04:38;;;;;;;36.93;19.07;;;;;;;9.91;59.11;100606.35;124404;1099;104258;-77
2024/03/02 10:07:40;;;;;;;35.60;18.60;;;;;;;10.00;58.80;100613.67;124368;1099;104348;-78
2024/03/02 10:10:20;;;;;;;37.57;18.10;;;;;;;10.11;59.04;100614.09;124030;1099;104274;-78
2024/03/02 10:13:04;;;;;;;39.93;19.03;;;;;;;10.12;58.78;100616.78;123928;1099;104345;-77
2024/03/02 10:15:37;;;;;;;33.63;17.27;;;;;;;10.11;58.18;100612.36;124516;1099;104650;-79
2024/03/02 10:18:12;;;;;;;36.30;18.33;;;;;;;9.97;57.19;100609.22;124605;1099;104331;-78
2024/03/02 10:20:43;;;;;;;36.73;17.50;;;;;;;9.92;56.89;100608.12;124613;1099;104511;-78
2024/03/02 10:23:17;;;;;;;37.23;18.53;;;;;;;9.89;57.15;100597.52;124806;1099;104242;-78
2024/03/02 10:25:48;;;;;;;32.85;17.25;;;;;;;9.97;56.97;100600.44;124629;1099;104283;-78
2024/03/02 10:28:19;;;;;;;33.50;16.10;;;;;;;9.93;55.97;100601.17;124548;1099;104162;-78
2024/03/02 10:30:52;;;;;;;33.90;16.87;;;;;;;9.82;56.03;100598.12;124080;1099;104172;-78
2024/03/02 10:33:25;;;;;;;39.00;17.95;;;;;;;9.87;56.96;100593.94;124569;1099;104249;-78
2024/03/02 10:35:57;;;;;;;32.80;16.75;;;;;;;10.01;57.00;100590.13;124255;1099;104300;-79
2024/03/02 10:38:29;;;;;;;35.20;16.10;;;;;;;10.13;55.87;100584.48;124293;1099;104226;-79
2024/03/02 10:41:00;;;;;;;34.10;16.17;;;;;;;10.15;56.08;100587.17;124677;1099;104281;-78
2024/03/02 10:43:33;;;;;;;35.10;17.03;;;;;;;10.19;56.05;100586.43;124609;1099;104287;-77
2024/03/02 10:46:04;;;;;;;31.43;16.60;;;;;;;10.23;56.38;100585.73;124557;1099;104342;-77
2024/03/02 10:48:38;;;;;;;34.00;18.03;;;;;;;10.20;56.47;100576.00;124903;1099;102087;-77
2024/03/02 10:51:09;;;;;;;35.03;16.25;;;;;;;10.22;55.59;100578.69;124856;1099;104274;-77
2024/03/02 10:53:40;;;;;;;35.10;16.67;;;;;;;10.16;55.31;100574.12;124612;1099;104188;-78
2024/03/02 10:56:15;;;;;;;33.57;16.07;;;;;;;10.19;55.81;100574.23;124224;1099;104347;-78
2024/03/02 10:58:47;;;;;;;38.33;17.00;;;;;;;10.26;55.88;100580.60;124628;1098;104277;-78
2024/03/02 11:01:20;;;;;;;30.67;16.37;;;;;;;10.29;55.21;100583.34;124878;1099;104169;-78
2024/03/02 11:03:53;;;;;;;27.73;13.67;;;;;;;10.23;54.03;100580.48;124210;1099;104220;-78
2024/03/02 11:06:28;;;;;;;34.13;15.73;;;;;;;10.18;55.14;100577.69;124358;1099;104242;-79
2024/03/02 11:09:03;;;;;;;33.80;15.30;;;;;;;10.24;55.41;100571.80;124570;1099;104263;-78
2024/03/02 11:11:42;;;;;;;32.17;14.40;;;;;;;10.24;54.79;100572.67;124743;1099;104467;-78
2024/03/02 11:14:18;;;;;;;30.77;14.97;;;;;;;10.22;54.56;100573.44;124469;1099;104210;-78
2024/03/02 11:16:49;;;;;;;31.03;15.30;;;;;;;10.25;54.97;100569.23;124394;1099;104239;-78
2024/03/02 11:19:22;;;;;;;31.40;14.77;;;;;;;10.35;55.74;100567.88;124624;1099;104239;-78
2024/03/02 11:21:54;;;;;;;30.63;13.90;;;;;;;10.39;55.04;100567.16;124891;1099;104216;-81
2024/03/02 11:24:35;;;;;;;27.77;14.43;;;;;;;10.30;53.94;100565.86;124987;1098;104353;-78